sensor_id;sensor_type;location;lat;lon;timestamp;pressure;altitude;pressure_sealevel;temperature;humidity
42727;BME280;28372;56.832;60.658;2024-01-15T00:01:35;97356.41;;;-12.04;49.24
42727;BME280;28372;56.832;60.658;2024-01-15T00:04:04;97346.44;;;-11.91;49.20
42727;BME280;28372;56.832;60.658;2024-01-15T00:06:32;97333.41;;;-12.08;48.16
42727;BME280;28372;56.832;60.658;2024-01-15T00:09:02;97354.44;;;-11.97;48.97
42727;BME280;28372;56.832;60.658;2024-01-15T00:11:32;97344.53;;;-12.12;48.45
42727;BME280;28372;56.832;60.658;2024-01-15T00:14:01;97355.59;;;-11.88;48.01
42727;BME280;28372;56.832;60.658;2024-01-15T00:16:31;97350.16;;;-11.86;47.43
42727;BME280;28372;56.832;60.658;2024-01-15T00:19:06;97371.63;;;-11.62;46.92
42727;BME280;28372;56.832;60.658;2024-01-15T00:21:34;97372.66;;;-11.63;47.41
42727;BME280;28372;56.832;60.658;2024-01-15T00:24:04;97375.44;;;-11.70;47.53
42727;BME280;28372;56.832;60.658;2024-01-15T00:26:33;97354.06;;;-11.67;46.73
42727;BME280;28372;56.832;60.658;2024-01-15T00:29:01;97386.56;;;-11.41;45.86
42727;BME280;28372;56.832;60.658;2024-01-15T00:31:30;97379.63;;;-11.52;45.75
42727;BME280;28372;56.832;60.658;2024-01-15T00:33:58;97384.50;;;-11.39;46.17
42727;BME280;28372;56.832;60.658;2024-01-15T00:36:26;97397.25;;;-11.42;47.48
42727;BME280;28372;56.832;60.658;2024-01-15T00:38:54;97403.47;;;-11.43;46.46
42727;BME280;28372;56.832;60.658;2024-01-15T00:41:22;97393.38;;;-11.57;47.50
42727;BME280;28372;56.832;60.658;2024-01-15T00:43:50;97403.09;;;-11.52;47.60
42727;BME280;28372;56.832;60.658;2024-01-15T00:46:44;97389.91;;;-11.62;48.15
42727;BME280;28372;56.832;60.658;2024-01-15T00:49:14;97429.81;;;-11.45;47.08
42727;BME280;28372;56.832;60.658;2024-01-15T00:51:44;97414.41;;;-11.63;47.21
42727;BME280;28372;56.832;60.658;2024-01-15T00:54:12;97413.44;;;-11.74;47.72
42727;BME280;28372;56.832;60.658;2024-01-15T00:56:40;97417.97;;;-11.52;47.68
42727;BME280;28372;56.832;60.658;2024-01-15T00:59:07;97438.91;;;-11.47;47.68
42727;BME280;28372;56.832;60.658;2024-01-15T01:01:38;97447.47;;;-11.52;47.65
42727;BME280;28372;56.832;60.658;2024-01-15T01:04:10;97442.72;;;-11.38;47.02
42727;BME280;28372;56.832;60.658;2024-01-15T01:06:40;97437.25;;;-11.71;48.02
42727;BME280;28372;56.832;60.658;2024-01-15T01:09:10;97419.16;;;-11.94;48.15
42727;BME280;28372;56.832;60.658;2024-01-15T01:11:38;97437.03;;;-12.15;49.36
42727;BME280;28372;56.832;60.658;2024-01-15T01:14:06;97440.22;;;-12.13;49.87
42727;BME280;28372;56.832;60.658;2024-01-15T01:16:34;97432.88;;;-12.16;49.79
42727;BME280;28372;56.832;60.658;2024-01-15T01:19:08;97433.78;;;-12.22;49.97
42727;BME280;28372;56.832;60.658;2024-01-15T01:21:37;97451.75;;;-12.09;49.98
42727;BME280;28372;56.832;60.658;2024-01-15T01:24:05;97443.56;;;-12.00;50.84
42727;BME280;28372;56.832;60.658;2024-01-15T01:26:33;97432.16;;;-12.11;50.07
42727;BME280;28372;56.832;60.658;2024-01-15T01:29:03;97433.69;;;-11.98;50.64
42727;BME280;28372;56.832;60.658;2024-01-15T01:31:31;97438.97;;;-11.93;49.69
42727;BME280;28372;56.832;60.658;2024-01-15T01:34:01;97450.59;;;-11.67;48.78
42727;BME280;28372;56.832;60.658;2024-01-15T01:36:31;97437.97;;;-11.75;49.57
42727;BME280;28372;56.832;60.658;2024-01-15T01:38:59;97431.88;;;-11.81;48.89
42727;BME280;28372;56.832;60.658;2024-01-15T01:41:27;97446.72;;;-11.64;48.49
42727;BME280;28372;56.832;60.658;2024-01-15T01:43:55;97439.13;;;-11.83;49.19
42727;BME280;28372;56.832;60.658;2024-01-15T01:46:29;97454.94;;;-11.73;49.29
42727;BME280;28372;56.832;60.658;2024-01-15T01:48:57;97449.16;;;-11.92;49.81
42727;BME280;28372;56.832;60.658;2024-01-15T01:51:26;97468.53;;;-11.88;50.20
42727;BME280;28372;56.832;60.658;2024-01-15T01:53:54;97467.09;;;-11.95;50.30
42727;BME280;28372;56.832;60.658;2024-01-15T01:56:24;97472.09;;;-11.94;50.31
42727;BME280;28372;56.832;60.658;2024-01-15T01:58:54;97467.53;;;-11.86;50.89
42727;BME280;28372;56.832;60.658;2024-01-15T02:01:27;97470.16;;;-11.69;51.59
42727;BME280;28372;56.832;60.658;2024-01-15T02:03:58;97475.53;;;-11.88;51.14
42727;BME280;28372;56.832;60.658;2024-01-15T02:06:26;97462.13;;;-11.97;51.05
42727;BME280;28372;56.832;60.658;2024-01-15T02:08:55;97499.09;;;-12.00;51.04
42727;BME280;28372;56.832;60.658;2024-01-15T02:11:25;97477.13;;;-12.04;51.20
42727;BME280;28372;56.832;60.658;2024-01-15T02:13:53;97493.31;;;-12.02;50.88
42727;BME280;28372;56.832;60.658;2024-01-15T02:16:21;97503.22;;;-11.87;51.30
42727;BME280;28372;56.832;60.658;2024-01-15T02:18:50;97491.88;;;-11.81;50.84
42727;BME280;28372;56.832;60.658;2024-01-15T02:21:37;97508.13;;;-11.45;49.91
42727;BME280;28372;56.832;60.658;2024-01-15T02:24:05;97486.13;;;-11.49;49.23
42727;BME280;28372;56.832;60.658;2024-01-15T02:26:33;97473.94;;;-11.60;49.30
42727;BME280;28372;56.832;60.658;2024-01-15T02:29:05;97498.28;;;-11.55;50.09
42727;BME280;28372;56.832;60.658;2024-01-15T02:31:38;97498.94;;;-11.47;49.66
42727;BME280;28372;56.832;60.658;2024-01-15T02:34:09;97505.19;;;-11.48;49.32
42727;BME280;28372;56.832;60.658;2024-01-15T02:36:37;97498.72;;;-11.46;49.72
42727;BME280;28372;56.832;60.658;2024-01-15T02:39:04;97501.97;;;-11.56;50.67
42727;BME280;28372;56.832;60.658;2024-01-15T02:41:32;97493.00;;;-11.60;50.15
42727;BME280;28372;56.832;60.658;2024-01-15T02:44:00;97494.94;;;-11.67;50.23
42727;BME280;28372;56.832;60.658;2024-01-15T02:46:28;97490.66;;;-11.44;50.17
42727;BME280;28372;56.832;60.658;2024-01-15T02:48:57;97512.56;;;-11.45;49.50
42727;BME280;28372;56.832;60.658;2024-01-15T02:51:26;97482.47;;;-11.65;50.03
42727;BME280;28372;56.832;60.658;2024-01-15T02:53:55;97513.81;;;-11.48;49.54
42727;BME280;28372;56.832;60.658;2024-01-15T02:56:24;97487.84;;;-11.55;49.19
42727;BME280;28372;56.832;60.658;2024-01-15T02:58:52;97509.84;;;-11.50;49.64
42727;BME280;28372;56.832;60.658;2024-01-15T03:01:20;97506.69;;;-11.52;51.32
42727;BME280;28372;56.832;60.658;2024-01-15T03:03:49;97516.09;;;-11.51;49.77
42727;BME280;28372;56.832;60.658;2024-01-15T03:06:19;97505.50;;;-11.62;49.42
42727;BME280;28372;56.832;60.658;2024-01-15T03:08:47;97521.97;;;-11.44;49.02
42727;BME280;28372;56.832;60.658;2024-01-15T03:11:14;97518.22;;;-11.65;49.79
42727;BME280;28372;56.832;60.658;2024-01-15T03:13:52;97518.00;;;-11.64;49.68
42727;BME280;28372;56.832;60.658;2024-01-15T03:17:50;97469.69;;;-12.12;50.81
42727;BME280;28372;56.832;60.658;2024-01-15T03:20:18;97520.91;;;-11.60;50.28
42727;BME280;28372;56.832;60.658;2024-01-15T03:22:46;97532.28;;;-11.66;48.63
42727;BME280;28372;56.832;60.658;2024-01-15T03:25:14;97549.41;;;-11.42;49.06
42727;BME280;28372;56.832;60.658;2024-01-15T03:27:43;97538.19;;;-11.42;48.86
42727;BME280;28372;56.832;60.658;2024-01-15T03:30:13;97560.53;;;-11.17;48.00
42727;BME280;28372;56.832;60.658;2024-01-15T03:32:41;97548.09;;;-11.27;49.35
42727;BME280;28372;56.832;60.658;2024-01-15T03:35:09;97559.16;;;-11.20;47.83
42727;BME280;28372;56.832;60.658;2024-01-15T03:37:39;97568.50;;;-10.90;47.06
42727;BME280;28372;56.832;60.658;2024-01-15T03:40:09;97570.41;;;-11.20;47.05
42727;BME280;28372;56.832;60.658;2024-01-15T03:42:37;97581.56;;;-11.24;47.79
42727;BME280;28372;56.832;60.658;2024-01-15T03:45:05;97585.41;;;-11.27;47.52
42727;BME280;28372;56.832;60.658;2024-01-15T03:47:33;97584.78;;;-11.34;50.88
42727;BME280;28372;56.832;60.658;2024-01-15T03:50:01;97586.41;;;-11.16;48.68
42727;BME280;28372;56.832;60.658;2024-01-15T03:52:30;97587.44;;;-11.00;47.42
42727;BME280;28372;56.832;60.658;2024-01-15T03:54:59;97591.47;;;-11.09;46.93
42727;BME280;28372;56.832;60.658;2024-01-15T03:57:29;97591.91;;;-11.12;47.09
42727;BME280;28372;56.832;60.658;2024-01-15T03:59:56;97588.13;;;-11.22;47.09
42727;BME280;28372;56.832;60.658;2024-01-15T04:02:25;97602.84;;;-11.15;47.48
42727;BME280;28372;56.832;60.658;2024-01-15T04:04:55;97594.59;;;-11.24;47.62
42727;BME280;28372;56.832;60.658;2024-01-15T04:07:23;97585.31;;;-11.32;48.14
42727;BME280;28372;56.832;60.658;2024-01-15T04:09:52;97610.78;;;-11.10;48.18
42727;BME280;28372;56.832;60.658;2024-01-15T04:12:20;97595.00;;;-11.15;47.36
42727;BME280;28372;56.832;60.658;2024-01-15T04:14:48;97582.81;;;-11.27;47.58
42727;BME280;28372;56.832;60.658;2024-01-15T04:17:15;97594.75;;;-11.31;48.90
42727;BME280;28372;56.832;60.658;2024-01-15T04:19:44;97588.47;;;-11.47;48.29
42727;BME280;28372;56.832;60.658;2024-01-15T04:22:14;97588.25;;;-11.45;48.51
42727;BME280;28372;56.832;60.658;2024-01-15T04:24:41;97608.50;;;-11.35;48.76
42727;BME280;28372;56.832;60.658;2024-01-15T04:27:09;97602.13;;;-11.11;48.74
42727;BME280;28372;56.832;60.658;2024-01-15T04:29:40;97612.81;;;-11.12;49.08
42727;BME280;28372;56.832;60.658;2024-01-15T04:32:08;97624.47;;;-10.86;48.92
42727;BME280;28372;56.832;60.658;2024-01-15T04:34:39;97594.63;;;-10.73;48.10
42727;BME280;28372;56.832;60.658;2024-01-15T04:37:10;97639.78;;;-10.61;48.49
42727;BME280;28372;56.832;60.658;2024-01-15T04:39:39;97633.19;;;-10.63;48.97
42727;BME280;28372;56.832;60.658;2024-01-15T04:42:08;97631.38;;;-10.63;48.40
42727;BME280;28372;56.832;60.658;2024-01-15T04:44:35;97641.91;;;-10.41;47.14
42727;BME280;28372;56.832;60.658;2024-01-15T04:47:03;97637.16;;;-10.61;49.21
42727;BME280;28372;56.832;60.658;2024-01-15T04:49:32;97642.28;;;-10.32;47.98
42727;BME280;28372;56.832;60.658;2024-01-15T04:52:02;97668.06;;;-10.19;46.73
42727;BME280;28372;56.832;60.658;2024-01-15T04:54:29;97649.03;;;-10.36;46.58
42727;BME280;28372;56.832;60.658;2024-01-15T04:56:57;97663.34;;;-10.22;46.53
42727;BME280;28372;56.832;60.658;2024-01-15T04:59:25;97674.69;;;-10.33;46.43
42727;BME280;28372;56.832;60.658;2024-01-15T05:01:52;97672.53;;;-10.19;46.63
42727;BME280;28372;56.832;60.658;2024-01-15T05:04:23;97680.03;;;-10.23;46.06
42727;BME280;28372;56.832;60.658;2024-01-15T05:06:53;97682.84;;;-10.12;46.16
42727;BME280;28372;56.832;60.658;2024-01-15T05:09:21;97679.16;;;-10.11;45.80
42727;BME280;28372;56.832;60.658;2024-01-15T05:11:56;97676.09;;;-10.08;45.94
42727;BME280;28372;56.832;60.658;2024-01-15T05:14:35;97718.34;;;-10.17;45.84
42727;BME280;28372;56.832;60.658;2024-01-15T05:17:03;97698.09;;;-10.21;45.81
42727;BME280;28372;56.832;60.658;2024-01-15T05:19:35;97704.38;;;-10.05;45.86
42727;BME280;28372;56.832;60.658;2024-01-15T05:22:03;97716.81;;;-9.95;46.50
42727;BME280;28372;56.832;60.658;2024-01-15T05:24:31;97713.34;;;-10.01;45.57
42727;BME280;28372;56.832;60.658;2024-01-15T05:26:59;97720.38;;;-10.02;45.83
42727;BME280;28372;56.832;60.658;2024-01-15T05:29:26;97713.72;;;-10.09;45.97
42727;BME280;28372;56.832;60.658;2024-01-15T05:31:55;97725.94;;;-10.15;46.13
42727;BME280;28372;56.832;60.658;2024-01-15T05:34:28;97720.78;;;-10.27;47.07
42727;BME280;28372;56.832;60.658;2024-01-15T05:36:57;97717.81;;;-10.36;46.45
42727;BME280;28372;56.832;60.658;2024-01-15T05:39:26;97713.75;;;-10.26;46.08
42727;BME280;28372;56.832;60.658;2024-01-15T05:41:56;97729.53;;;-10.38;46.87
42727;BME280;28372;56.832;60.658;2024-01-15T05:44:24;97720.81;;;-10.44;46.23
42727;BME280;28372;56.832;60.658;2024-01-15T05:46:52;97735.13;;;-10.29;46.27
42727;BME280;28372;56.832;60.658;2024-01-15T05:49:21;97723.81;;;-10.35;46.42
42727;BME280;28372;56.832;60.658;2024-01-15T05:51:50;97733.56;;;-10.30;47.63
42727;BME280;28372;56.832;60.658;2024-01-15T05:54:19;97726.31;;;-9.89;46.14
42727;BME280;28372;56.832;60.658;2024-01-15T05:56:50;97737.78;;;-9.90;45.09
42727;BME280;28372;56.832;60.658;2024-01-15T05:59:18;97749.69;;;-9.83;45.39
42727;BME280;28372;56.832;60.658;2024-01-15T06:01:46;97755.72;;;-9.99;45.54
42727;BME280;28372;56.832;60.658;2024-01-15T06:04:15;97741.88;;;-10.00;44.79
42727;BME280;28372;56.832;60.658;2024-01-15T06:06:44;97739.31;;;-9.94;44.10
42727;BME280;28372;56.832;60.658;2024-01-15T06:09:12;97776.09;;;-9.67;44.46
42727;BME280;28372;56.832;60.658;2024-01-15T06:11:40;97763.09;;;-9.96;44.47
42727;BME280;28372;56.832;60.658;2024-01-15T06:14:07;97771.75;;;-9.95;44.88
42727;BME280;28372;56.832;60.658;2024-01-15T06:16:37;97787.59;;;-9.85;44.64
42727;BME280;28372;56.832;60.658;2024-01-15T06:19:05;97785.22;;;-9.70;44.51
42727;BME280;28372;56.832;60.658;2024-01-15T06:21:33;97797.44;;;-9.75;45.66
42727;BME280;28372;56.832;60.658;2024-01-15T06:24:01;97794.53;;;-9.57;45.01
42727;BME280;28372;56.832;60.658;2024-01-15T06:26:29;97790.16;;;-9.73;45.26
42727;BME280;28372;56.832;60.658;2024-01-15T06:28:57;97794.06;;;-9.37;45.16
42727;BME280;28372;56.832;60.658;2024-01-15T06:31:24;97800.47;;;-9.44;44.88
42727;BME280;28372;56.832;60.658;2024-01-15T06:33:52;97802.06;;;-9.43;44.64
42727;BME280;28372;56.832;60.658;2024-01-15T06:36:21;97808.81;;;-9.48;43.91
42727;BME280;28372;56.832;60.658;2024-01-15T06:38:49;97804.53;;;-9.54;44.98
42727;BME280;28372;56.832;60.658;2024-01-15T06:41:17;97814.59;;;-9.45;43.95
42727;BME280;28372;56.832;60.658;2024-01-15T06:43:45;97799.94;;;-9.47;43.92
42727;BME280;28372;56.832;60.658;2024-01-15T06:46:20;97815.41;;;-9.45;44.29
42727;BME280;28372;56.832;60.658;2024-01-15T06:48:49;97827.00;;;-9.41;43.48
42727;BME280;28372;56.832;60.658;2024-01-15T06:51:18;97823.19;;;-9.50;44.69
42727;BME280;28372;56.832;60.658;2024-01-15T06:53:46;97819.81;;;-9.68;45.30
42727;BME280;28372;56.832;60.658;2024-01-15T06:56:14;97837.53;;;-9.53;45.46
42727;BME280;28372;56.832;60.658;2024-01-15T06:58:46;97816.31;;;-9.56;45.64
42727;BME280;28372;56.832;60.658;2024-01-15T07:01:14;97818.03;;;-9.45;44.65
42727;BME280;28372;56.832;60.658;2024-01-15T07:03:42;97831.94;;;-9.22;44.52
42727;BME280;28372;56.832;60.658;2024-01-15T07:06:11;97824.81;;;-9.27;44.02
42727;BME280;28372;56.832;60.658;2024-01-15T07:08:40;97828.59;;;-9.18;44.54
42727;BME280;28372;56.832;60.658;2024-01-15T07:11:09;97825.50;;;-9.15;44.31
42727;BME280;28372;56.832;60.658;2024-01-15T07:13:37;97821.34;;;-9.10;44.38
42727;BME280;28372;56.832;60.658;2024-01-15T07:16:05;97823.47;;;-9.30;46.47
42727;BME280;28372;56.832;60.658;2024-01-15T07:18:33;97827.84;;;-9.35;45.11
42727;BME280;28372;56.832;60.658;2024-01-15T07:21:01;97832.81;;;-9.17;44.19
42727;BME280;28372;56.832;60.658;2024-01-15T07:23:33;97833.44;;;-8.87;44.86
42727;BME280;28372;56.832;60.658;2024-01-15T07:26:01;97832.09;;;-8.90;43.75
42727;BME280;28372;56.832;60.658;2024-01-15T07:28:29;97851.78;;;-8.87;43.75
42727;BME280;28372;56.832;60.658;2024-01-15T07:30:58;97853.06;;;-8.68;43.53
42727;BME280;28372;56.832;60.658;2024-01-15T07:33:26;97871.25;;;-8.61;43.56
42727;BME280;28372;56.832;60.658;2024-01-15T07:35:56;97871.84;;;-8.54;43.85
42727;BME280;28372;56.832;60.658;2024-01-15T07:38:28;97886.84;;;-8.49;43.14
42727;BME280;28372;56.832;60.658;2024-01-15T07:40:56;97889.03;;;-8.63;43.33
42727;BME280;28372;56.832;60.658;2024-01-15T07:43:24;97890.56;;;-8.67;45.91
42727;BME280;28372;56.832;60.658;2024-01-15T07:45:53;97902.75;;;-8.56;43.96
42727;BME280;28372;56.832;60.658;2024-01-15T07:48:22;97897.41;;;-8.39;43.69
42727;BME280;28372;56.832;60.658;2024-01-15T07:50:51;97903.38;;;-8.21;44.70
42727;BME280;28372;56.832;60.658;2024-01-15T07:53:20;97916.94;;;-8.30;43.45
42727;BME280;28372;56.832;60.658;2024-01-15T07:55:48;97919.63;;;-8.24;43.76
42727;BME280;28372;56.832;60.658;2024-01-15T07:58:16;97912.97;;;-8.32;43.97
42727;BME280;28372;56.832;60.658;2024-01-15T08:00:45;97925.22;;;-8.16;44.48
42727;BME280;28372;56.832;60.658;2024-01-15T08:03:13;97911.59;;;-8.13;43.38
42727;BME280;28372;56.832;60.658;2024-01-15T08:05:43;97927.41;;;-7.80;43.98
42727;BME280;28372;56.832;60.658;2024-01-15T08:08:31;97923.19;;;-7.81;42.43
42727;BME280;28372;56.832;60.658;2024-01-15T08:11:02;97927.44;;;-7.48;43.80
42727;BME280;28372;56.832;60.658;2024-01-15T08:13:31;97937.09;;;-7.53;42.80
42727;BME280;28372;56.832;60.658;2024-01-15T08:15:59;97942.81;;;-7.62;43.12
42727;BME280;28372;56.832;60.658;2024-01-15T08:18:27;97942.03;;;-7.62;42.45
42727;BME280;28372;56.832;60.658;2024-01-15T08:20:55;97937.78;;;-7.36;43.70
42727;BME280;28372;56.832;60.658;2024-01-15T08:23:25;97937.97;;;-7.10;43.44
42727;BME280;28372;56.832;60.658;2024-01-15T08:26:00;97933.16;;;-7.24;42.90
42727;BME280;28372;56.832;60.658;2024-01-15T08:28:30;97933.97;;;-7.18;42.15
42727;BME280;28372;56.832;60.658;2024-01-15T08:31:02;97941.56;;;-7.21;42.21
42727;BME280;28372;56.832;60.658;2024-01-15T08:33:31;97942.28;;;-7.31;42.47
42727;BME280;28372;56.832;60.658;2024-01-15T08:35:59;97953.94;;;-7.22;42.57
42727;BME280;28372;56.832;60.658;2024-01-15T08:38:27;97944.44;;;-7.23;42.43
42727;BME280;28372;56.832;60.658;2024-01-15T08:40:55;97945.47;;;-7.29;42.46
42727;BME280;28372;56.832;60.658;2024-01-15T08:43:30;97956.31;;;-7.15;43.00
42727;BME280;28372;56.832;60.658;2024-01-15T08:46:02;97937.50;;;-7.02;43.51
42727;BME280;28372;56.832;60.658;2024-01-15T08:48:31;97929.13;;;-7.31;42.08
42727;BME280;28372;56.832;60.658;2024-01-15T08:51:02;97953.16;;;-7.17;41.93
42727;BME280;28372;56.832;60.658;2024-01-15T08:53:31;97959.69;;;-7.25;42.18
42727;BME280;28372;56.832;60.658;2024-01-15T08:56:02;97943.38;;;-7.27;42.07
42727;BME280;28372;56.832;60.658;2024-01-15T08:58:30;97957.06;;;-7.25;41.60
42727;BME280;28372;56.832;60.658;2024-01-15T09:00:58;97955.84;;;-7.07;42.03
42727;BME280;28372;56.832;60.658;2024-01-15T09:03:26;97966.13;;;-7.06;42.28
42727;BME280;28372;56.832;60.658;2024-01-15T09:05:56;97975.34;;;-7.03;41.49
42727;BME280;28372;56.832;60.658;2024-01-15T09:08:24;97964.66;;;-6.91;43.06
42727;BME280;28372;56.832;60.658;2024-01-15T09:10:55;97959.50;;;-6.71;44.34
42727;BME280;28372;56.832;60.658;2024-01-15T09:13:22;97970.53;;;-6.74;41.90
42727;BME280;28372;56.832;60.658;2024-01-15T09:15:50;97955.44;;;-6.94;42.21
42727;BME280;28372;56.832;60.658;2024-01-15T09:18:19;97974.31;;;-7.02;41.13
42727;BME280;28372;56.832;60.658;2024-01-15T09:20:48;97969.69;;;-7.22;41.88
42727;BME280;28372;56.832;60.658;2024-01-15T09:23:20;97982.47;;;-7.31;41.29
42727;BME280;28372;56.832;60.658;2024-01-15T09:25:48;97977.22;;;-7.31;42.41
42727;BME280;28372;56.832;60.658;2024-01-15T09:28:17;97981.25;;;-7.23;42.35
42727;BME280;28372;56.832;60.658;2024-01-15T09:30:45;97984.69;;;-7.17;42.52
42727;BME280;28372;56.832;60.658;2024-01-15T09:33:14;97977.66;;;-7.44;41.63
42727;BME280;28372;56.832;60.658;2024-01-15T09:35:45;97990.22;;;-7.46;42.69
42727;BME280;28372;56.832;60.658;2024-01-15T09:38:12;97995.53;;;-7.09;43.63
42727;BME280;28372;56.832;60.658;2024-01-15T09:40:43;97990.72;;;-7.22;42.05
42727;BME280;28372;56.832;60.658;2024-01-15T09:43:13;97987.28;;;-7.23;42.36
42727;BME280;28372;56.832;60.658;2024-01-15T09:45:42;97993.38;;;-7.17;41.82
42727;BME280;28372;56.832;60.658;2024-01-15T09:48:11;97984.56;;;-7.33;42.08
42727;BME280;28372;56.832;60.658;2024-01-15T09:50:40;98003.16;;;-7.12;41.94
42727;BME280;28372;56.832;60.658;2024-01-15T09:53:08;98007.41;;;-7.06;42.15
42727;BME280;28372;56.832;60.658;2024-01-15T09:55:37;98014.19;;;-7.10;42.34
42727;BME280;28372;56.832;60.658;2024-01-15T09:58:10;98000.19;;;-6.83;43.96
42727;BME280;28372;56.832;60.658;2024-01-15T10:00:39;98005.28;;;-7.09;41.72
42727;BME280;28372;56.832;60.658;2024-01-15T10:03:09;98013.22;;;-7.04;42.44
42727;BME280;28372;56.832;60.658;2024-01-15T10:05:42;98012.00;;;-6.86;43.11
42727;BME280;28372;56.832;60.658;2024-01-15T10:08:11;98018.03;;;-6.91;41.81
42727;BME280;28372;56.832;60.658;2024-01-15T10:10:39;98016.75;;;-6.88;42.80
42727;BME280;28372;56.832;60.658;2024-01-15T10:13:09;98024.56;;;-6.98;41.17
42727;BME280;28372;56.832;60.658;2024-01-15T10:15:38;98042.47;;;-6.95;41.79
42727;BME280;28372;56.832;60.658;2024-01-15T10:18:06;98031.03;;;-7.38;41.25
42727;BME280;28372;56.832;60.658;2024-01-15T10:20:34;98035.38;;;-7.49;41.29
42727;BME280;28372;56.832;60.658;2024-01-15T10:23:03;98046.50;;;-7.42;42.28
42727;BME280;28372;56.832;60.658;2024-01-15T10:25:31;98028.72;;;-7.84;42.78
42727;BME280;28372;56.832;60.658;2024-01-15T10:28:04;98038.53;;;-7.75;41.94
42727;BME280;28372;56.832;60.658;2024-01-15T10:30:32;98041.22;;;-7.69;42.29
42727;BME280;28372;56.832;60.658;2024-01-15T10:33:03;98039.53;;;-7.81;42.65
42727;BME280;28372;56.832;60.658;2024-01-15T10:35:34;98044.84;;;-7.76;43.14
42727;BME280;28372;56.832;60.658;2024-01-15T10:38:03;98056.63;;;-7.78;43.14
42727;BME280;28372;56.832;60.658;2024-01-15T10:40:34;98067.66;;;-7.76;42.67
42727;BME280;28372;56.832;60.658;2024-01-15T10:43:02;98059.25;;;-7.78;42.65
42727;BME280;28372;56.832;60.658;2024-01-15T10:45:33;98058.53;;;-7.46;43.41
42727;BME280;28372;56.832;60.658;2024-01-15T10:48:02;98057.75;;;-7.47;42.09
42727;BME280;28372;56.832;60.658;2024-01-15T10:50:32;98054.66;;;-7.66;42.27
42727;BME280;28372;56.832;60.658;2024-01-15T10:53:00;98055.22;;;-7.64;42.58
42727;BME280;28372;56.832;60.658;2024-01-15T10:55:29;98058.94;;;-7.60;42.24
42727;BME280;28372;56.832;60.658;2024-01-15T10:57:59;98048.97;;;-7.58;42.34
42727;BME280;28372;56.832;60.658;2024-01-15T11:00:27;98038.66;;;-7.64;43.20
42727;BME280;28372;56.832;60.658;2024-01-15T11:02:56;98050.69;;;-7.68;42.52
42727;BME280;28372;56.832;60.658;2024-01-15T11:05:25;98058.69;;;-7.80;42.21
42727;BME280;28372;56.832;60.658;2024-01-15T11:07:58;98058.56;;;-8.13;43.13
42727;BME280;28372;56.832;60.658;2024-01-15T11:10:42;98050.03;;;-8.03;43.90
42727;BME280;28372;56.832;60.658;2024-01-15T11:13:39;98062.84;;;-8.06;42.66
42727;BME280;28372;56.832;60.658;2024-01-15T11:16:10;98058.56;;;-8.13;43.15
42727;BME280;28372;56.832;60.658;2024-01-15T11:19:01;98036.59;;;-8.29;43.23
42727;BME280;28372;56.832;60.658;2024-01-15T11:21:29;98060.38;;;-8.35;42.86
42727;BME280;28372;56.832;60.658;2024-01-15T11:28:59;98080.53;;;-8.58;42.80
42727;BME280;28372;56.832;60.658;2024-01-15T11:32:03;98074.16;;;-8.45;43.96
42727;BME280;28372;56.832;60.658;2024-01-15T11:34:55;98054.22;;;-8.46;43.51
42727;BME280;28372;56.832;60.658;2024-01-15T11:43:02;98088.22;;;-8.68;43.30
42727;BME280;28372;56.832;60.658;2024-01-15T11:45:31;98084.19;;;-8.59;43.93
42727;BME280;28372;56.832;60.658;2024-01-15T11:48:21;98081.44;;;-8.30;43.82
42727;BME280;28372;56.832;60.658;2024-01-15T11:50:52;98075.09;;;-8.34;43.30
42727;BME280;28372;56.832;60.658;2024-01-15T11:53:33;98059.34;;;-8.73;43.03
42727;BME280;28372;56.832;60.658;2024-01-15T11:56:08;98074.97;;;-8.62;42.54
42727;BME280;28372;56.832;60.658;2024-01-15T11:58:41;98072.50;;;-8.85;43.18
42727;BME280;28372;56.832;60.658;2024-01-15T12:01:13;98090.41;;;-8.65;44.19
42727;BME280;28372;56.832;60.658;2024-01-15T12:03:44;98081.72;;;-8.83;43.01
42727;BME280;28372;56.832;60.658;2024-01-15T12:06:14;98057.16;;;-8.93;43.92
42727;BME280;28372;56.832;60.658;2024-01-15T12:08:42;98079.09;;;-8.83;43.30
42727;BME280;28372;56.832;60.658;2024-01-15T12:11:13;98089.75;;;-8.72;43.46
42727;BME280;28372;56.832;60.658;2024-01-15T12:13:46;98089.84;;;-8.67;43.58
42727;BME280;28372;56.832;60.658;2024-01-15T12:16:16;98090.47;;;-8.94;43.21
42727;BME280;28372;56.832;60.658;2024-01-15T12:18:44;98093.59;;;-9.09;43.54
42727;BME280;28372;56.832;60.658;2024-01-15T12:21:13;98093.03;;;-8.82;43.90
42727;BME280;28372;56.832;60.658;2024-01-15T12:23:42;98110.19;;;-8.74;43.13
42727;BME280;28372;56.832;60.658;2024-01-15T12:26:11;98088.81;;;-8.66;43.19
42727;BME280;28372;56.832;60.658;2024-01-15T12:28:39;98098.97;;;-8.87;43.50
42727;BME280;28372;56.832;60.658;2024-01-15T12:31:07;98105.16;;;-8.93;43.47
42727;BME280;28372;56.832;60.658;2024-01-15T12:33:37;98109.69;;;-8.71;43.14
42727;BME280;28372;56.832;60.658;2024-01-15T12:36:06;98106.03;;;-8.87;42.85
42727;BME280;28372;56.832;60.658;2024-01-15T12:38:34;98122.56;;;-8.87;42.95
42727;BME280;28372;56.832;60.658;2024-01-15T12:41:02;98114.53;;;-8.80;43.26
42727;BME280;28372;56.832;60.658;2024-01-15T12:43:30;98101.81;;;-8.88;43.30
42727;BME280;28372;56.832;60.658;2024-01-15T12:46:00;98117.94;;;-8.97;43.33
42727;BME280;28372;56.832;60.658;2024-01-15T12:48:31;98123.50;;;-9.22;43.77
42727;BME280;28372;56.832;60.658;2024-01-15T12:50:59;98139.28;;;-9.34;43.57
42727;BME280;28372;56.832;60.658;2024-01-15T12:53:27;98101.63;;;-9.44;43.72
42727;BME280;28372;56.832;60.658;2024-01-15T12:55:55;98109.53;;;-9.27;44.21
42727;BME280;28372;56.832;60.658;2024-01-15T12:58:24;98125.19;;;-9.44;43.90
42727;BME280;28372;56.832;60.658;2024-01-15T13:00:54;98125.97;;;-9.32;44.04
42727;BME280;28372;56.832;60.658;2024-01-15T13:03:41;98112.28;;;-9.34;44.05
42727;BME280;28372;56.832;60.658;2024-01-15T13:06:09;98128.88;;;-9.28;43.98
42727;BME280;28372;56.832;60.658;2024-01-15T13:08:38;98130.53;;;-9.39;43.88
42727;BME280;28372;56.832;60.658;2024-01-15T13:11:08;98121.50;;;-9.72;44.33